createdAt,value
2022-10-13T00:00:49.349Z,100609.78
2022-10-13T00:03:16.811Z,100605.44
2022-10-13T00:05:48.477Z,100611.53
2022-10-13T00:08:21.266Z,100605.44
2022-10-13T00:10:49.313Z,100609.78
2022-10-13T00:13:20.492Z,100606.28
2022-10-13T00:15:48.032Z,100605.44
2022-10-13T00:18:15.912Z,100613.28
2022-10-13T00:20:45.265Z,100608.91
2022-10-13T00:23:13.993Z,100613.25
2022-10-13T00:25:45.157Z,100604.53
2022-10-13T00:28:13.225Z,100609.78
2022-10-13T00:30:41.135Z,100608.03
2022-10-13T00:33:08.356Z,100601.94
2022-10-13T00:35:47.574Z,100609.78
2022-10-13T00:38:19.285Z,100613.25
2022-10-13T00:40:50.407Z,100606.31
2022-10-13T00:43:19.209Z,100603.66
2022-10-13T00:45:49.853Z,100599.31
2022-10-13T00:48:24.120Z,100601.91
2022-10-13T00:50:51.561Z,100607.16
2022-10-13T00:53:21.702Z,100600.16
2022-10-13T00:55:50.586Z,100607.16
2022-10-13T00:58:19.790Z,100602.78
2022-10-13T01:00:49.183Z,100608.06
2022-10-13T01:03:17.705Z,100608.91
2022-10-13T01:05:45.667Z,100605.41
2022-10-13T01:08:15.018Z,100610.66
2022-10-13T01:10:50.492Z,100608.03
2022-10-13T01:13:26.047Z,100595.81
2022-10-13T01:16:02.410Z,100594.94
2022-10-13T01:18:57.071Z,100597.53
2022-10-13T01:21:42.054Z,100599.31
2022-10-13T01:24:40.478Z,100593.22
2022-10-13T01:27:28.591Z,100591.47
2022-10-13T01:30:20.792Z,100595.81
2022-10-13T01:33:10.335Z,100598.44
2022-10-13T01:35:50.174Z,100598.44
2022-10-13T01:38:35.089Z,100593.19
2022-10-13T01:41:19.952Z,100595.81
2022-10-13T01:44:10.127Z,100602.78
2022-10-13T01:46:38.707Z,100603.69
2022-10-13T01:49:13.993Z,100594.06
2022-10-13T01:51:42.197Z,100601.00
2022-10-13T01:54:09.151Z,100596.63
2022-10-13T01:56:36.142Z,100595.69
2022-10-13T01:59:07.859Z,100594.81
2022-10-13T02:01:55.983Z,100598.25
2022-10-13T02:05:08.017Z,100593.81
2022-10-13T02:07:45.519Z,100593.75
2022-10-13T02:10:22.407Z,100592.84
2022-10-13T02:13:02.618Z,100591.94
2022-10-13T02:15:35.566Z,100593.66
2022-10-13T02:18:08.699Z,100593.59
2022-10-13T02:20:36.921Z,100593.56
2022-10-13T02:23:10.152Z,100593.50
2022-10-13T02:25:37.488Z,100597.84
2022-10-13T02:28:05.497Z,100593.44
2022-10-13T02:30:35.916Z,100588.16
2022-10-13T02:33:03.516Z,100592.53
2022-10-13T02:35:31.067Z,100585.47
2022-10-13T02:38:00.603Z,100589.78
2022-10-13T02:40:28.060Z,100595.88
2022-10-13T02:42:54.919Z,100586.22
2022-10-13T02:45:21.614Z,100585.31
2022-10-13T02:47:49.934Z,100592.28
2022-10-13T02:50:16.867Z,100589.63
2022-10-13T02:52:43.618Z,100586.06
2022-10-13T02:55:10.491Z,100588.66
2022-10-13T02:57:37.915Z,100586.00
2022-10-13T03:00:07.217Z,100587.72
2022-10-13T03:02:34.184Z,100590.31
2022-10-13T03:05:00.897Z,100590.28
2022-10-13T03:07:27.589Z,100592.88
2022-10-13T03:09:54.317Z,100588.50
2022-10-13T03:12:21.517Z,100591.09
2022-10-13T03:14:48.488Z,100590.19
2022-10-13T03:17:15.207Z,100588.44
2022-10-13T03:19:42.026Z,100590.13
2022-10-13T03:22:14.681Z,100584.88
2022-10-13T03:24:42.489Z,100584.84
2022-10-13T03:27:09.456Z,100586.59
2022-10-13T03:29:36.196Z,100589.19
2022-10-13T03:32:03.214Z,100583.97
2022-10-13T03:34:30.166Z,100578.72
2022-10-13T03:36:57.929Z,100582.19
2022-10-13T03:39:24.990Z,100579.53
2022-10-13T03:41:51.731Z,100581.28
2022-10-13T03:44:18.726Z,100583.84
2022-10-13T03:46:45.541Z,100575.94
2022-10-13T03:49:12.527Z,100576.84
2022-10-13T03:51:39.403Z,100586.44
2022-10-13T03:54:06.178Z,100592.56
2022-10-13T03:56:33.327Z,100597.78
2022-10-13T03:59:01.498Z,100591.63
2022-10-13T04:01:30.247Z,100596.84
2022-10-13T04:03:58.411Z,100590.72
2022-10-13T04:06:26.458Z,100594.22
2022-10-13T04:08:53.525Z,100586.31
2022-10-13T04:11:21.155Z,100583.66
2022-10-13T04:13:51.947Z,100590.66
2022-10-13T04:16:24.627Z,100594.22
2022-10-13T04:19:00.517Z,100588.03
2022-10-13T04:21:28.425Z,100584.56
2022-10-13T04:23:57.342Z,100592.44
2022-10-13T04:26:26.507Z,100586.31
2022-10-13T04:28:54.603Z,100588.03
2022-10-13T04:31:23.172Z,100592.34
2022-10-13T04:33:50.837Z,100590.47
2022-10-13T04:36:18.988Z,100589.53
2022-10-13T04:38:47.808Z,100592.94
2022-10-13T04:41:16.589Z,100590.25
2022-10-13T04:43:43.642Z,100594.53
2022-10-13T04:46:14.498Z,100596.25
2022-10-13T04:48:41.918Z,100595.28
2022-10-13T04:51:11.782Z,100600.47
2022-10-13T04:53:39.237Z,100598.63
2022-10-13T04:56:15.921Z,100595.91
2022-10-13T04:58:44.698Z,100596.69
2022-10-13T05:01:21.880Z,100605.41
2022-10-13T05:03:54.349Z,100601.78
2022-10-13T05:06:25.125Z,100603.44
2022-10-13T05:08:56.158Z,100609.50
2022-10-13T05:11:25.508Z,100610.22
2022-10-13T05:13:52.774Z,100607.47
2022-10-13T05:16:21.216Z,100609.09
2022-10-13T05:18:49.767Z,100608.06
2022-10-13T05:21:25.147Z,100609.59
2022-10-13T05:23:56.011Z,100613.81
2022-10-13T05:26:29.290Z,100613.59
2022-10-13T05:28:57.285Z,100620.47
2022-10-13T05:31:27.750Z,100622.97
2022-10-13T05:33:56.739Z,100641.22
2022-10-13T05:36:26.309Z,100629.69
2022-10-13T05:38:56.347Z,100626.88
2022-10-13T05:41:24.608Z,100624.16
2022-10-13T05:43:57.293Z,100628.44
2022-10-13T05:46:24.290Z,100626.56
2022-10-13T05:48:51.201Z,100621.16
2022-10-13T05:51:22.863Z,100629.84
2022-10-13T05:53:57.691Z,100624.47
2022-10-13T05:56:30.020Z,100624.38
2022-10-13T05:59:01.806Z,100620.78
2022-10-13T06:01:32.952Z,100624.16
2022-10-13T06:04:04.774Z,100620.47
2022-10-13T06:06:31.920Z,100619.41
2022-10-13T06:09:00.022Z,100622.78
2022-10-13T06:11:27.244Z,100624.38
2022-10-13T06:13:53.958Z,100620.66
2022-10-13T06:16:20.789Z,100616.97
2022-10-13T06:18:47.995Z,100619.47
2022-10-13T06:21:14.842Z,100614.94
2022-10-13T06:23:41.546Z,100617.31
2022-10-13T06:26:09.138Z,100613.56
2022-10-13T06:28:37.164Z,100616.81
2022-10-13T06:31:06.606Z,100617.38
2022-10-13T06:33:34.147Z,100617.22
2022-10-13T06:36:03.313Z,100621.53
2022-10-13T06:38:30.378Z,100623.84
2022-10-13T06:41:05.077Z,100622.72
2022-10-13T06:43:39.627Z,100622.47
2022-10-13T06:46:10.863Z,100622.94
2022-10-13T06:48:38.075Z,100631.47
2022-10-13T06:51:07.230Z,100624.91
2022-10-13T06:53:34.308Z,100626.28
2022-10-13T06:56:02.785Z,100626.63
2022-10-13T06:58:29.735Z,100632.47
2022-10-13T07:00:57.005Z,100625.88
2022-10-13T07:03:25.120Z,100620.94
2022-10-13T07:05:52.140Z,100630.25
2022-10-13T07:08:19.473Z,100626.19
2022-10-13T07:10:46.930Z,100623.00
2022-10-13T07:13:13.960Z,100615.41
2022-10-13T07:15:41.171Z,100619.28
2022-10-13T07:18:08.225Z,100624.25
2022-10-13T07:20:35.325Z,100624.69
2022-10-13T07:23:02.931Z,100619.72
2022-10-13T07:25:30.122Z,100618.16
2022-10-13T07:27:59.089Z,100614.84
2022-10-13T07:30:26.667Z,100616.75
2022-10-13T07:32:53.410Z,100615.19
2022-10-13T07:35:20.359Z,100612.00
2022-10-13T07:37:47.150Z,100617.56
2022-10-13T07:40:14.019Z,100616.06
2022-10-13T07:42:41.013Z,100615.44
2022-10-13T07:45:08.340Z,100622.81
2022-10-13T07:47:35.151Z,100623.00
2022-10-13T07:50:02.144Z,100620.53
2022-10-13T07:52:29.052Z,100612.53
2022-10-13T07:54:56.041Z,100613.41
2022-10-13T07:57:26.837Z,100626.94
2022-10-13T07:59:54.144Z,100620.28
2022-10-13T08:02:21.245Z,100617.03
2022-10-13T08:04:48.603Z,100615.44
2022-10-13T08:07:17.059Z,100620.19
2022-10-13T08:09:45.009Z,100621.06
2022-10-13T08:12:12.311Z,100621.72
2022-10-13T08:14:39.146Z,100611.94
2022-10-13T08:17:08.107Z,100615.72
2022-10-13T08:19:34.939Z,100616.63
2022-10-13T08:22:01.899Z,100615.31
2022-10-13T08:24:29.667Z,100606.22
2022-10-13T08:26:56.584Z,100608.06
2022-10-13T08:29:24.341Z,100600.31
2022-10-13T08:31:53.559Z,100609.97
2022-10-13T08:34:22.480Z,100609.97
2022-10-13T08:36:53.030Z,100602.75
2022-10-13T08:39:21.464Z,100605.22
2022-10-13T08:41:48.639Z,100605.00
2022-10-13T08:45:02.544Z,100605.31
2022-10-13T08:47:29.581Z,100605.00
2022-10-13T08:50:07.454Z,100610.03
2022-10-13T08:52:47.052Z,100605.38
2022-10-13T08:55:38.703Z,100607.00
2022-10-13T08:58:27.629Z,100613.78
2022-10-13T09:01:35.936Z,100604.78
2022-10-13T09:04:09.021Z,100615.56
2022-10-13T09:06:51.771Z,100614.09
2022-10-13T09:09:18.782Z,100618.25
2022-10-13T09:11:48.215Z,100610.66
2022-10-13T09:14:22.952Z,100617.41
2022-10-13T09:16:51.332Z,100611.66
2022-10-13T09:19:26.146Z,100605.81
2022-10-13T09:21:56.134Z,100616.28
2022-10-13T09:24:25.484Z,100612.00
2022-10-13T09:27:05.567Z,100613.53
2022-10-13T09:29:34.629Z,100608.16
2022-10-13T09:32:18.411Z,100605.13
2022-10-13T09:34:46.495Z,100606.81
2022-10-13T09:37:25.735Z,100592.59
2022-10-13T09:40:19.730Z,100597.44
2022-10-13T09:42:53.727Z,100601.28
2022-10-13T09:45:24.122Z,100596.38
2022-10-13T09:48:05.725Z,100596.81
2022-10-13T09:50:35.483Z,100599.84
2022-10-13T09:53:26.916Z,100598.97
2022-10-13T09:56:25.671Z,100589.97
2022-10-13T09:59:04.408Z,100595.78
2022-10-13T10:01:37.988Z,100585.34
2022-10-13T10:04:10.181Z,100586.66
2022-10-13T10:06:40.306Z,100582.22
2022-10-13T10:09:27.925Z,100588.91
2022-10-13T10:11:57.807Z,100588.47
2022-10-13T10:14:33.202Z,100588.38
2022-10-13T10:17:19.085Z,100583.22
2022-10-13T10:19:52.009Z,100579.97
2022-10-13T10:22:21.843Z,100580.41
2022-10-13T10:25:10.087Z,100580.84
2022-10-13T10:27:43.770Z,100566.59
2022-10-13T10:30:18.606Z,100576.47
2022-10-13T10:32:59.357Z,100578.22
2022-10-13T10:36:17.266Z,100575.59
2022-10-13T10:38:50.692Z,100572.41
2022-10-13T10:41:58.869Z,100565.47
2022-10-13T10:44:32.240Z,100566.44
2022-10-13T10:47:06.955Z,100576.25
2022-10-13T10:49:36.864Z,100568.41
2022-10-13T10:52:08.703Z,100563.78
2022-10-13T10:55:15.206Z,100563.66
2022-10-13T10:57:57.905Z,100571.94
2022-10-13T11:00:25.007Z,100565.72
2022-10-13T11:03:26.545Z,100560.66
2022-10-13T11:05:59.259Z,100564.56
2022-10-13T11:08:47.129Z,100558.78
2022-10-13T11:11:24.798Z,100553.25
2022-10-13T11:14:25.117Z,100554.13
2022-10-13T11:17:06.964Z,100559.63
2022-10-13T11:19:40.077Z,100562.00
2022-10-13T11:22:06.804Z,100556.81
2022-10-13T11:24:38.800Z,100557.44
2022-10-13T11:27:09.225Z,100555.97
2022-10-13T11:29:49.132Z,100554.72
2022-10-13T11:32:28.070Z,100558.03
2022-10-13T11:35:06.906Z,100556.53
2022-10-13T11:38:06.935Z,100557.81
2022-10-13T11:41:01.279Z,100551.25
2022-10-13T11:44:15.413Z,100554.06
2022-10-13T11:47:40.414Z,100553.03
2022-10-13T11:50:19.381Z,100543.34
2022-10-13T11:52:58.133Z,100542.09
2022-10-13T11:55:30.985Z,100547.28
2022-10-13T11:58:13.724Z,100541.56
2022-10-13T12:00:51.062Z,100534.34
2022-10-13T12:03:46.973Z,100526.03
2022-10-13T12:06:33.495Z,100526.25
2022-10-13T12:09:03.317Z,100528.09
2022-10-13T12:11:33.783Z,100524.09
2022-10-13T12:14:01.569Z,100526.66
2022-10-13T12:16:29.676Z,100520.13
2022-10-13T12:19:23.102Z,100517.56
2022-10-13T12:21:55.997Z,100518.81
2022-10-13T12:24:24.918Z,100513.66
2022-10-13T12:26:52.804Z,100517.97
2022-10-13T12:29:24.706Z,100515.75
2022-10-13T12:31:52.381Z,100511.56
2022-10-13T12:34:30.036Z,100510.44
2022-10-13T12:37:00.842Z,100505.97
2022-10-13T12:39:31.152Z,100506.88
2022-10-13T12:41:59.784Z,100504.13
2022-10-13T12:44:29.332Z,100504.56
2022-10-13T12:46:59.203Z,100497.84
2022-10-13T12:49:31.838Z,100495.25
2022-10-13T12:52:06.541Z,100498.16
2022-10-13T12:54:36.654Z,100497.19
2022-10-13T12:57:18.667Z,100495.66
2022-10-13T12:59:45.597Z,100494.59
2022-10-13T13:02:28.824Z,100492.44
2022-10-13T13:04:56.168Z,100490.44
2022-10-13T13:07:34.964Z,100489.38
2022-10-13T13:10:07.507Z,100494.97
2022-10-13T13:12:36.687Z,100495.25
2022-10-13T13:15:31.869Z,100500.19
2022-10-13T13:18:26.701Z,100492.78
2022-10-13T13:20:54.435Z,100496.72
2022-10-13T13:23:23.379Z,100495.19
2022-10-13T13:26:03.472Z,100497.59
2022-10-13T13:28:32.472Z,100501.66
2022-10-13T13:31:03.233Z,100491.50
2022-10-13T13:33:30.106Z,100482.91
2022-10-13T13:35:58.745Z,100489.47
2022-10-13T13:38:25.617Z,100486.09
2022-10-13T13:40:52.407Z,100483.72
2022-10-13T13:43:19.203Z,100484.66
2022-10-13T13:45:46.177Z,100484.81
2022-10-13T13:48:13.299Z,100483.16
2022-10-13T13:50:40.572Z,100488.47
2022-10-13T13:53:07.589Z,100489.19
2022-10-13T13:55:34.755Z,100483.66
2022-10-13T13:58:04.097Z,100491.47
2022-10-13T14:00:30.837Z,100489.56
2022-10-13T14:02:57.855Z,100480.78
2022-10-13T14:05:24.695Z,100482.00
2022-10-13T14:07:54.031Z,100481.56
2022-10-13T14:10:20.771Z,100482.75
2022-10-13T14:12:47.518Z,100472.50
2022-10-13T14:15:14.315Z,100487.97
2022-10-13T14:17:41.167Z,100490.03
2022-10-13T14:20:08.344Z,100478.72
2022-10-13T14:22:38.863Z,100486.72
2022-10-13T14:25:07.242Z,100476.09
2022-10-13T14:27:35.202Z,100481.31
2022-10-13T14:30:02.760Z,100481.16
2022-10-13T14:32:29.619Z,100487.09
2022-10-13T14:34:56.474Z,100478.03
2022-10-13T14:37:25.076Z,100484.56
2022-10-13T14:39:54.631Z,100480.53
2022-10-13T14:42:21.851Z,100481.72
2022-10-13T14:44:48.647Z,100480.13
2022-10-13T14:47:15.463Z,100476.81
2022-10-13T14:49:42.298Z,100484.06
2022-10-13T14:52:09.941Z,100480.69
2022-10-13T14:54:40.014Z,100478.31
2022-10-13T14:57:09.269Z,100478.50
2022-10-13T14:59:36.057Z,100484.06
2022-10-13T15:02:02.917Z,100479.91
2022-10-13T15:04:29.669Z,100480.97
2022-10-13T15:06:56.422Z,100483.97
2022-10-13T15:09:33.424Z,100476.25
2022-10-13T15:12:13.296Z,100479.34
2022-10-13T15:14:40.115Z,100471.75
2022-10-13T15:17:06.880Z,100471.22
2022-10-13T15:19:33.759Z,100476.88
2022-10-13T15:22:00.588Z,100473.75
2022-10-13T15:24:27.447Z,100475.91
2022-10-13T15:26:55.507Z,100479.06
2022-10-13T15:29:26.668Z,100476.88
2022-10-13T15:32:08.357Z,100487.16
2022-10-13T15:34:35.451Z,100485.97
2022-10-13T15:37:02.191Z,100490.94
2022-10-13T15:39:28.986Z,100485.31
2022-10-13T15:41:56.246Z,100485.00
2022-10-13T15:44:26.470Z,100487.38
2022-10-13T15:47:07.437Z,100489.63
2022-10-13T15:49:39.373Z,100492.03
2022-10-13T15:52:06.230Z,100494.22
2022-10-13T15:54:33.190Z,100491.03
2022-10-13T15:57:00.376Z,100493.22
2022-10-13T15:59:27.190Z,100492.66
2022-10-13T16:01:53.984Z,100490.19
2022-10-13T16:04:20.732Z,100487.72
2022-10-13T16:06:47.570Z,100495.81
2022-10-13T16:09:14.396Z,100501.22
2022-10-13T16:11:41.734Z,100498.63
2022-10-13T16:14:08.937Z,100500.38
2022-10-13T16:16:35.658Z,100498.66
2022-10-13T16:19:02.501Z,100499.56
2022-10-13T16:21:29.309Z,100494.31
2022-10-13T16:23:56.840Z,100499.66
2022-10-13T16:26:23.993Z,100502.41
2022-10-13T16:28:54.439Z,100494.59
2022-10-13T16:31:21.372Z,100493.06
2022-10-13T16:33:48.483Z,100491.47
2022-10-13T16:36:17.553Z,100496.09
2022-10-13T16:38:46.620Z,100503.38
2022-10-13T16:41:16.925Z,100501.00
2022-10-13T16:43:45.051Z,100500.34
2022-10-13T16:46:13.972Z,100503.22
2022-10-13T16:48:42.023Z,100502.53
2022-10-13T16:51:12.383Z,100501.84
2022-10-13T16:53:39.456Z,100497.53
2022-10-13T16:56:07.908Z,100495.13
2022-10-13T16:58:35.611Z,100493.44
2022-10-13T17:01:06.126Z,100496.19
2022-10-13T17:03:33.011Z,100494.56
2022-10-13T17:05:59.770Z,100499.00
2022-10-13T17:08:26.642Z,100495.56
2022-10-13T17:10:58.048Z,100499.22
2022-10-13T17:13:25.156Z,100503.69
2022-10-13T17:15:53.429Z,100497.63
2022-10-13T17:18:20.929Z,100503.84
2022-10-13T17:21:15.338Z,100500.38
2022-10-13T17:23:47.517Z,100498.72
2022-10-13T17:26:17.013Z,100496.16
2022-10-13T17:28:44.517Z,100499.69
2022-10-13T17:31:18.068Z,100509.41
2022-10-13T17:33:45.603Z,100501.53
2022-10-13T17:36:13.862Z,100497.13
2022-10-13T17:38:41.141Z,100501.53
2022-10-13T17:41:10.110Z,100500.59
2022-10-13T17:43:43.551Z,100497.88
2022-10-13T17:46:35.720Z,100499.56
2022-10-13T17:49:02.776Z,100496.84
2022-10-13T17:51:29.634Z,100494.94
2022-10-13T17:53:58.944Z,100489.56
2022-10-13T17:56:25.936Z,100494.72
2022-10-13T17:58:53.167Z,100493.75
2022-10-13T18:01:38.599Z,100487.53
2022-10-13T18:04:09.976Z,100492.78
2022-10-13T18:06:41.207Z,100491.94
2022-10-13T18:09:11.553Z,100490.13
2022-10-13T18:11:40.053Z,100496.28
2022-10-13T18:14:07.549Z,100491.94
2022-10-13T18:16:35.736Z,100491.88
2022-10-13T18:19:04.592Z,100486.69
2022-10-13T18:21:31.973Z,100491.16
2022-10-13T18:24:01.322Z,100488.66
2022-10-13T18:26:37.742Z,100495.84
2022-10-13T18:29:06.862Z,100498.66
2022-10-13T18:31:35.927Z,100496.16
2022-10-13T18:34:06.110Z,100496.28
2022-10-13T18:36:55.111Z,100503.38
2022-10-13T18:39:31.800Z,100504.28
2022-10-13T18:41:58.748Z,100503.41
2022-10-13T18:44:34.052Z,100505.13
2022-10-13T18:47:00.939Z,100505.94
2022-10-13T18:49:33.392Z,100508.50
2022-10-13T18:52:01.699Z,100506.72
2022-10-13T18:54:29.035Z,100497.81
2022-10-13T18:56:56.043Z,100502.97
2022-10-13T18:59:22.916Z,100507.25
2022-10-13T19:01:50.155Z,100500.94
2022-10-13T19:04:17.080Z,100506.06
2022-10-13T19:06:44.729Z,100507.69
2022-10-13T19:09:13.836Z,100509.28
2022-10-13T19:11:40.993Z,100513.56
2022-10-13T19:14:11.385Z,100515.16
2022-10-13T19:16:40.849Z,100516.78
2022-10-13T19:19:10.764Z,100514.84
2022-10-13T19:21:38.680Z,100515.63
2022-10-13T19:24:06.652Z,100513.81
2022-10-13T19:26:35.113Z,100507.56
2022-10-13T19:29:11.748Z,100513.63
2022-10-13T19:31:40.199Z,100513.59
2022-10-13T19:34:07.838Z,100506.47
2022-10-13T19:36:37.817Z,100508.19
2022-10-13T19:39:13.301Z,100511.66
2022-10-13T19:41:40.628Z,100512.50
2022-10-13T19:44:07.385Z,100511.53
2022-10-13T19:46:39.726Z,100510.63
2022-10-13T19:49:07.356Z,100518.47
2022-10-13T19:51:35.610Z,100521.94
2022-10-13T19:54:02.499Z,100514.84
2022-10-13T19:56:34.269Z,100513.88
2022-10-13T19:59:04.565Z,100519.97
2022-10-13T20:01:32.325Z,100522.59
2022-10-13T20:03:59.872Z,100520.78
2022-10-13T20:06:26.693Z,100518.19
2022-10-13T20:08:53.468Z,100509.44
2022-10-13T20:11:24.061Z,100512.03
2022-10-13T20:13:52.849Z,100517.38
2022-10-13T20:16:22.393Z,100515.66
2022-10-13T20:18:54.638Z,100507.84
2022-10-13T20:21:21.879Z,100510.59
2022-10-13T20:23:49.444Z,100517.75
2022-10-13T20:26:17.404Z,100518.69
2022-10-13T20:28:45.703Z,100518.81
2022-10-13T20:31:13.738Z,100527.72
2022-10-13T20:33:41.211Z,100519.94
2022-10-13T20:36:12.385Z,100522.69
2022-10-13T20:38:39.808Z,100517.50
2022-10-13T20:41:07.443Z,100522.84
2022-10-13T20:43:35.090Z,100522.91
2022-10-13T20:46:05.760Z,100517.69
2022-10-13T20:48:57.740Z,100523.09
2022-10-13T20:51:23.371Z,100525.81
2022-10-13T20:53:50.457Z,100521.53
2022-10-13T20:56:24.110Z,100522.47
2022-10-13T20:58:51.677Z,100519.00
2022-10-13T21:01:20.532Z,100525.19
2022-10-13T21:03:51.954Z,100525.22
2022-10-13T21:06:18.843Z,100528.75
2022-10-13T21:08:46.671Z,100532.25
2022-10-13T21:11:16.018Z,100527.00
2022-10-13T21:13:44.637Z,100526.03
2022-10-13T21:16:14.508Z,100530.41
2022-10-13T21:18:44.518Z,100525.13
2022-10-13T21:21:12.094Z,100527.72
2022-10-13T21:23:40.333Z,100521.53
2022-10-13T21:26:09.906Z,100516.22
2022-10-13T21:28:38.692Z,100522.31
2022-10-13T21:31:10.761Z,100524.06
2022-10-13T21:33:39.039Z,100523.16
2022-10-13T21:36:11.364Z,100518.84
2022-10-13T21:38:39.588Z,100529.41
2022-10-13T21:41:07.797Z,100522.38
2022-10-13T21:43:34.905Z,100522.44
2022-10-13T21:46:29.353Z,100523.31
2022-10-13T21:48:58.628Z,100520.75
2022-10-13T21:51:37.698Z,100522.53
2022-10-13T21:54:10.755Z,100524.34
2022-10-13T21:56:39.580Z,100524.38
2022-10-13T21:59:07.020Z,100524.38
2022-10-13T22:01:34.369Z,100523.53
2022-10-13T22:04:02.663Z,100525.31
2022-10-13T22:06:31.503Z,100513.88
2022-10-13T22:09:00.215Z,100519.22
2022-10-13T22:11:30.249Z,100521.94
2022-10-13T22:13:58.206Z,100515.84
2022-10-13T22:16:33.809Z,100516.84
2022-10-13T22:19:00.582Z,100511.69
2022-10-13T22:21:29.959Z,100506.59
2022-10-13T22:23:58.491Z,100512.00
2022-10-13T22:26:25.955Z,100522.69
2022-10-13T22:28:52.827Z,100528.97
2022-10-13T22:31:20.153Z,100529.09
2022-10-13T22:33:47.780Z,100528.41
2022-10-13T22:36:17.744Z,100525.91
2022-10-13T22:38:46.385Z,100526.09
2022-10-13T22:41:14.860Z,100534.19
2022-10-13T22:43:44.142Z,100533.50
2022-10-13T22:46:15.619Z,100536.31
2022-10-13T22:48:42.533Z,100533.84
2022-10-13T22:51:10.607Z,100534.81
2022-10-13T22:53:37.779Z,100533.16
2022-10-13T22:56:10.080Z,100528.88
2022-10-13T22:58:36.877Z,100537.78
2022-10-13T23:01:08.689Z,100531.75
2022-10-13T23:03:36.350Z,100535.34
2022-10-13T23:06:04.241Z,100545.13
2022-10-13T23:08:31.035Z,100533.78
2022-10-13T23:10:58.071Z,100538.34
2022-10-13T23:13:25.503Z,100538.47
2022-10-13T23:15:53.648Z,100540.34
2022-10-13T23:18:24.632Z,100543.13
2022-10-13T23:20:56.523Z,100536.28
2022-10-13T23:23:25.661Z,100533.00
2022-10-13T23:25:52.479Z,100535.81
2022-10-13T23:28:19.307Z,100537.75
2022-10-13T23:30:46.057Z,100536.09
2022-10-13T23:33:12.796Z,100532.75
2022-10-13T23:35:39.786Z,100530.31
2022-10-13T23:38:06.482Z,100536.56
2022-10-13T23:40:34.782Z,100528.84
2022-10-13T23:43:01.974Z,100533.38
2022-10-13T23:45:29.183Z,100530.00
2022-10-13T23:47:55.880Z,100532.78
2022-10-13T23:50:23.346Z,100531.13
2022-10-13T23:52:50.168Z,100532.97
2022-10-13T23:55:17.838Z,100532.19
2022-10-13T23:57:44.646Z,100529.66
